sensor_id;sensor_type;location;lat;lon;timestamp;pressure;altitude;pressure_sealevel;temperature;humidity
74079;BME280;62437;51.544;-3.276;2022-09-02T00:00:41;101033.37;;;19.70;38.57
74079;BME280;62437;51.544;-3.276;2022-09-02T00:03:05;101036.22;;;19.57;38.33
74079;BME280;62437;51.544;-3.276;2022-09-02T00:05:31;101033.79;;;19.41;38.39
74079;BME280;62437;51.544;-3.276;2022-09-02T00:07:56;101034.59;;;19.62;38.03
74079;BME280;62437;51.544;-3.276;2022-09-02T00:10:22;101031.61;;;19.37;38.30
74079;BME280;62437;51.544;-3.276;2022-09-02T00:12:48;101027.75;;;19.60;37.78
74079;BME280;62437;51.544;-3.276;2022-09-02T00:15:13;101025.28;;;19.49;38.84
74079;BME280;62437;51.544;-3.276;2022-09-02T00:17:39;101023.77;;;19.56;37.82
74079;BME280;62437;51.544;-3.276;2022-09-02T00:20:05;101021.57;;;19.63;37.96
74079;BME280;62437;51.544;-3.276;2022-09-02T00:22:30;101020.96;;;19.80;38.86
74079;BME280;62437;51.544;-3.276;2022-09-02T00:24:56;101017.72;;;19.88;37.33
74079;BME280;62437;51.544;-3.276;2022-09-02T00:27:21;101015.80;;;19.53;38.24
74079;BME280;62437;51.544;-3.276;2022-09-02T00:29:47;101011.85;;;19.23;38.39
74079;BME280;62437;51.544;-3.276;2022-09-02T00:32:13;101009.51;;;19.48;37.91
74079;BME280;62437;51.544;-3.276;2022-09-02T00:34:38;101006.98;;;19.61;37.58
74079;BME280;62437;51.544;-3.276;2022-09-02T00:37:04;101007.09;;;19.70;37.53
74079;BME280;62437;51.544;-3.276;2022-09-02T00:39:30;101009.12;;;19.64;37.56
74079;BME280;62437;51.544;-3.276;2022-09-02T00:41:56;101008.41;;;19.48;38.80
74079;BME280;62437;51.544;-3.276;2022-09-02T00:44:21;101006.78;;;19.06;38.82
74079;BME280;62437;51.544;-3.276;2022-09-02T00:46:47;101006.97;;;19.57;38.53
74079;BME280;62437;51.544;-3.276;2022-09-02T00:49:17;101004.54;;;19.74;37.91
74079;BME280;62437;51.544;-3.276;2022-09-02T00:51:41;101003.37;;;19.50;38.29
74079;BME280;62437;51.544;-3.276;2022-09-02T00:54:04;101003.42;;;19.24;38.08
74079;BME280;62437;51.544;-3.276;2022-09-02T00:56:30;101001.28;;;18.79;39.72
74079;BME280;62437;51.544;-3.276;2022-09-02T00:58:55;101000.36;;;18.63;40.59
74079;BME280;62437;51.544;-3.276;2022-09-02T01:01:20;100992.48;;;19.01;39.36
74079;BME280;62437;51.544;-3.276;2022-09-02T01:03:46;100993.68;;;19.45;38.87
74079;BME280;62437;51.544;-3.276;2022-09-02T01:06:12;100992.47;;;19.55;38.50
74079;BME280;62437;51.544;-3.276;2022-09-02T01:08:38;100985.83;;;19.31;38.86
74079;BME280;62437;51.544;-3.276;2022-09-02T01:11:03;100990.26;;;19.17;40.07
74079;BME280;62437;51.544;-3.276;2022-09-02T01:13:31;100985.59;;;18.84;39.66
74079;BME280;62437;51.544;-3.276;2022-09-02T01:15:56;100981.78;;;19.33;39.45
74079;BME280;62437;51.544;-3.276;2022-09-02T01:18:22;100977.69;;;18.95;38.92
74079;BME280;62437;51.544;-3.276;2022-09-02T01:20:46;100977.56;;;19.15;38.69
74079;BME280;62437;51.544;-3.276;2022-09-02T01:23:13;100972.69;;;18.60;40.26
74079;BME280;62437;51.544;-3.276;2022-09-02T01:25:37;100971.23;;;19.02;39.44
74079;BME280;62437;51.544;-3.276;2022-09-02T01:28:07;100969.72;;;19.28;39.10
74079;BME280;62437;51.544;-3.276;2022-09-02T01:30:29;100970.64;;;19.09;39.07
74079;BME280;62437;51.544;-3.276;2022-09-02T01:32:54;100961.53;;;19.33;39.32
74079;BME280;62437;51.544;-3.276;2022-09-02T01:35:20;100963.33;;;19.48;39.55
74079;BME280;62437;51.544;-3.276;2022-09-02T01:37:46;100966.04;;;18.50;40.09
74079;BME280;62437;51.544;-3.276;2022-09-02T01:40:13;100963.07;;;18.65;39.62
74079;BME280;62437;51.544;-3.276;2022-09-02T01:42:38;100958.07;;;18.86;39.50
74079;BME280;62437;51.544;-3.276;2022-09-02T01:45:03;100956.94;;;18.95;39.82
74079;BME280;62437;51.544;-3.276;2022-09-02T01:47:28;100949.60;;;19.20;39.52
74079;BME280;62437;51.544;-3.276;2022-09-02T01:49:54;100951.88;;;19.23;39.53
74079;BME280;62437;51.544;-3.276;2022-09-02T01:52:20;100949.57;;;19.07;39.68
74079;BME280;62437;51.544;-3.276;2022-09-02T01:54:44;100949.47;;;19.08;39.21
74079;BME280;62437;51.544;-3.276;2022-09-02T01:57:11;100947.67;;;19.14;39.90
74079;BME280;62437;51.544;-3.276;2022-09-02T01:59:35;100944.63;;;19.52;39.19
74079;BME280;62437;51.544;-3.276;2022-09-02T02:02:01;100943.01;;;19.03;39.55
74079;BME280;62437;51.544;-3.276;2022-09-02T02:04:27;100944.70;;;18.99;39.72
74079;BME280;62437;51.544;-3.276;2022-09-02T02:06:53;100939.01;;;18.80;39.08
74079;BME280;62437;51.544;-3.276;2022-09-02T02:09:18;100939.63;;;19.09;40.07
74079;BME280;62437;51.544;-3.276;2022-09-02T02:11:45;100934.75;;;19.02;39.53
74079;BME280;62437;51.544;-3.276;2022-09-02T02:14:09;100933.32;;;18.92;39.74
74079;BME280;62437;51.544;-3.276;2022-09-02T02:16:35;100929.65;;;18.88;39.89
74079;BME280;62437;51.544;-3.276;2022-09-02T02:19:01;100922.13;;;18.58;40.12
74079;BME280;62437;51.544;-3.276;2022-09-02T02:21:26;100920.99;;;18.89;39.86
74079;BME280;62437;51.544;-3.276;2022-09-02T02:23:52;100919.12;;;18.76;39.71
74079;BME280;62437;51.544;-3.276;2022-09-02T02:26:17;100917.64;;;18.85;40.36
74079;BME280;62437;51.544;-3.276;2022-09-02T02:28:43;100914.99;;;19.38;40.52
74079;BME280;62437;51.544;-3.276;2022-09-02T02:31:09;100913.73;;;18.87;40.38
74079;BME280;62437;51.544;-3.276;2022-09-02T02:33:34;100914.05;;;18.88;40.30
74079;BME280;62437;51.544;-3.276;2022-09-02T02:36:00;100910.47;;;18.51;39.69
74079;BME280;62437;51.544;-3.276;2022-09-02T02:38:25;100904.11;;;18.66;40.13
74079;BME280;62437;51.544;-3.276;2022-09-02T02:40:54;100906.93;;;18.29;40.54
74079;BME280;62437;51.544;-3.276;2022-09-02T02:43:16;100904.15;;;17.85;41.49
74079;BME280;62437;51.544;-3.276;2022-09-02T02:45:42;100903.43;;;18.63;40.54
74079;BME280;62437;51.544;-3.276;2022-09-02T02:48:07;100897.94;;;18.99;40.55
74079;BME280;62437;51.544;-3.276;2022-09-02T02:50:33;100902.13;;;18.53;41.28
74079;BME280;62437;51.544;-3.276;2022-09-02T02:52:58;100898.08;;;18.10;42.48
74079;BME280;62437;51.544;-3.276;2022-09-02T02:55:24;100894.00;;;18.64;41.72
74079;BME280;62437;51.544;-3.276;2022-09-02T02:57:50;100889.05;;;18.78;40.90
74079;BME280;62437;51.544;-3.276;2022-09-02T03:00:17;100887.40;;;18.90;41.37
74079;BME280;62437;51.544;-3.276;2022-09-02T03:02:40;100889.67;;;18.34;41.12
74079;BME280;62437;51.544;-3.276;2022-09-02T03:05:08;100886.13;;;18.88;40.52
74079;BME280;62437;51.544;-3.276;2022-09-02T03:07:32;100889.44;;;18.25;41.48
74079;BME280;62437;51.544;-3.276;2022-09-02T03:09:57;100887.73;;;18.13;41.34
74079;BME280;62437;51.544;-3.276;2022-09-02T03:12:23;100886.81;;;18.26;41.99
74079;BME280;62437;51.544;-3.276;2022-09-02T03:14:48;100885.24;;;18.22;41.87
74079;BME280;62437;51.544;-3.276;2022-09-02T03:17:14;100883.46;;;18.34;41.57
74079;BME280;62437;51.544;-3.276;2022-09-02T03:19:40;100879.27;;;18.37;41.10
74079;BME280;62437;51.544;-3.276;2022-09-02T03:22:05;100879.90;;;18.80;40.57
74079;BME280;62437;51.544;-3.276;2022-09-02T03:24:31;100875.05;;;18.45;40.61
74079;BME280;62437;51.544;-3.276;2022-09-02T03:26:57;100876.44;;;18.43;40.84
74079;BME280;62437;51.544;-3.276;2022-09-02T03:29:22;100875.63;;;18.36;42.04
74079;BME280;62437;51.544;-3.276;2022-09-02T03:31:48;100869.85;;;18.79;40.86
74079;BME280;62437;51.544;-3.276;2022-09-02T03:34:14;100870.21;;;18.53;40.66
74079;BME280;62437;51.544;-3.276;2022-09-02T03:36:40;100868.90;;;18.72;40.06
74079;BME280;62437;51.544;-3.276;2022-09-02T03:39:07;100870.41;;;19.04;39.30
74079;BME280;62437;51.544;-3.276;2022-09-02T03:41:31;100871.46;;;18.71;39.80
74079;BME280;62437;51.544;-3.276;2022-09-02T03:43:56;100870.37;;;18.96;39.44
74079;BME280;62437;51.544;-3.276;2022-09-02T03:46:22;100869.56;;;18.56;39.46
74079;BME280;62437;51.544;-3.276;2022-09-02T03:48:48;100870.96;;;18.66;40.71
74079;BME280;62437;51.544;-3.276;2022-09-02T03:51:13;100868.39;;;18.62;39.86
74079;BME280;62437;51.544;-3.276;2022-09-02T03:53:39;100869.77;;;18.43;40.50
74079;BME280;62437;51.544;-3.276;2022-09-02T03:56:05;100864.90;;;18.67;40.07
74079;BME280;62437;51.544;-3.276;2022-09-02T03:58:30;100861.77;;;18.75;41.54
74079;BME280;62437;51.544;-3.276;2022-09-02T04:00:55;100860.81;;;18.77;42.19
74079;BME280;62437;51.544;-3.276;2022-09-02T04:03:21;100856.60;;;18.71;39.54
74079;BME280;62437;51.544;-3.276;2022-09-02T04:05:47;100858.12;;;18.64;39.98
74079;BME280;62437;51.544;-3.276;2022-09-02T04:08:12;100858.14;;;18.61;40.47
74079;BME280;62437;51.544;-3.276;2022-09-02T04:10:38;100864.16;;;18.56;39.55
74079;BME280;62437;51.544;-3.276;2022-09-02T04:13:04;100864.45;;;18.43;39.70
74079;BME280;62437;51.544;-3.276;2022-09-02T04:15:29;100867.94;;;18.35;39.95
74079;BME280;62437;51.544;-3.276;2022-09-02T04:17:55;100865.52;;;18.51;40.28
74079;BME280;62437;51.544;-3.276;2022-09-02T04:20:21;100863.23;;;18.72;39.45
74079;BME280;62437;51.544;-3.276;2022-09-02T04:22:47;100866.20;;;18.80;40.46
74079;BME280;62437;51.544;-3.276;2022-09-02T04:25:12;100865.46;;;18.78;39.53
74079;BME280;62437;51.544;-3.276;2022-09-02T04:27:38;100867.81;;;18.70;39.37
74079;BME280;62437;51.544;-3.276;2022-09-02T04:30:04;100864.95;;;18.58;39.50
74079;BME280;62437;51.544;-3.276;2022-09-02T04:32:30;100866.43;;;18.55;40.18
74079;BME280;62437;51.544;-3.276;2022-09-02T04:34:54;100861.50;;;18.65;39.19
74079;BME280;62437;51.544;-3.276;2022-09-02T04:37:20;100860.58;;;18.91;39.25
74079;BME280;62437;51.544;-3.276;2022-09-02T04:39:46;100857.53;;;18.97;39.02
74079;BME280;62437;51.544;-3.276;2022-09-02T04:42:11;100855.82;;;19.18;39.17
74079;BME280;62437;51.544;-3.276;2022-09-02T04:44:36;100854.98;;;19.09;39.05
74079;BME280;62437;51.544;-3.276;2022-09-02T04:47:03;100854.74;;;19.17;38.81
74079;BME280;62437;51.544;-3.276;2022-09-02T04:49:27;100851.49;;;18.97;39.33
74079;BME280;62437;51.544;-3.276;2022-09-02T04:51:53;100848.17;;;19.15;38.77
74079;BME280;62437;51.544;-3.276;2022-09-02T04:54:18;100844.87;;;19.07;39.04
74079;BME280;62437;51.544;-3.276;2022-09-02T04:56:44;100845.37;;;19.11;39.73
74079;BME280;62437;51.544;-3.276;2022-09-02T04:59:10;100840.99;;;19.05;38.84
74079;BME280;62437;51.544;-3.276;2022-09-02T05:01:35;100842.58;;;18.68;39.24
74079;BME280;62437;51.544;-3.276;2022-09-02T05:04:03;100841.90;;;18.90;39.87
74079;BME280;62437;51.544;-3.276;2022-09-02T05:06:27;100842.15;;;18.07;40.29
74079;BME280;62437;51.544;-3.276;2022-09-02T05:08:52;100839.22;;;18.65;39.44
74079;BME280;62437;51.544;-3.276;2022-09-02T05:11:20;100842.70;;;19.10;38.76
74079;BME280;62437;51.544;-3.276;2022-09-02T05:13:44;100841.65;;;19.29;39.79
74079;BME280;62437;51.544;-3.276;2022-09-02T05:16:09;100843.26;;;19.04;39.07
74079;BME280;62437;51.544;-3.276;2022-09-02T05:18:34;100841.48;;;19.06;38.82
74079;BME280;62437;51.544;-3.276;2022-09-02T05:21:03;100845.31;;;19.12;38.81
74079;BME280;62437;51.544;-3.276;2022-09-02T05:23:26;100844.14;;;18.93;38.74
74079;BME280;62437;51.544;-3.276;2022-09-02T05:25:51;100843.42;;;19.19;38.77
74079;BME280;62437;51.544;-3.276;2022-09-02T05:28:17;100845.09;;;19.22;38.70
74079;BME280;62437;51.544;-3.276;2022-09-02T05:30:43;100844.88;;;19.19;38.59
74079;BME280;62437;51.544;-3.276;2022-09-02T05:33:09;100845.97;;;19.09;38.79
74079;BME280;62437;51.544;-3.276;2022-09-02T05:35:39;100844.25;;;19.00;39.40
74079;BME280;62437;51.544;-3.276;2022-09-02T05:37:59;100840.62;;;19.14;38.61
74079;BME280;62437;51.544;-3.276;2022-09-02T05:40:25;100840.56;;;19.31;38.79
74079;BME280;62437;51.544;-3.276;2022-09-02T05:42:51;100838.28;;;19.32;38.53
74079;BME280;62437;51.544;-3.276;2022-09-02T05:45:17;100841.82;;;19.23;38.80
74079;BME280;62437;51.544;-3.276;2022-09-02T05:47:42;100842.54;;;19.06;39.03
74079;BME280;62437;51.544;-3.276;2022-09-02T05:50:09;100838.24;;;19.28;39.09
74079;BME280;62437;51.544;-3.276;2022-09-02T05:52:33;100840.40;;;18.83;39.05
74079;BME280;62437;51.544;-3.276;2022-09-02T05:54:59;100841.05;;;19.05;39.24
74079;BME280;62437;51.544;-3.276;2022-09-02T05:57:25;100841.04;;;19.19;38.91
74079;BME280;62437;51.544;-3.276;2022-09-02T05:59:51;100838.32;;;18.83;39.45
74079;BME280;62437;51.544;-3.276;2022-09-02T06:02:17;100838.67;;;18.86;39.55
74079;BME280;62437;51.544;-3.276;2022-09-02T06:04:45;100839.03;;;18.99;39.25
74079;BME280;62437;51.544;-3.276;2022-09-02T06:07:08;100838.08;;;18.84;39.38
74079;BME280;62437;51.544;-3.276;2022-09-02T06:09:33;100837.15;;;18.87;39.57
74079;BME280;62437;51.544;-3.276;2022-09-02T06:11:59;100836.33;;;18.98;39.70
74079;BME280;62437;51.544;-3.276;2022-09-02T06:14:26;100837.04;;;19.14;39.17
74079;BME280;62437;51.544;-3.276;2022-09-02T06:16:51;100834.24;;;18.96;40.70
74079;BME280;62437;51.544;-3.276;2022-09-02T06:19:17;100836.52;;;19.15;39.03
74079;BME280;62437;51.544;-3.276;2022-09-02T06:21:42;100838.13;;;19.11;39.08
74079;BME280;62437;51.544;-3.276;2022-09-02T06:24:10;100835.68;;;18.57;39.50
74079;BME280;62437;51.544;-3.276;2022-09-02T06:26:33;100837.72;;;19.03;39.32
74079;BME280;62437;51.544;-3.276;2022-09-02T06:28:59;100836.37;;;19.12;39.38
74079;BME280;62437;51.544;-3.276;2022-09-02T06:31:25;100834.69;;;19.07;39.57
74079;BME280;62437;51.544;-3.276;2022-09-02T06:33:52;100838.00;;;19.06;39.52
74079;BME280;62437;51.544;-3.276;2022-09-02T06:36:17;100840.79;;;18.94;39.51
74079;BME280;62437;51.544;-3.276;2022-09-02T06:38:44;100839.85;;;18.84;40.58
74079;BME280;62437;51.544;-3.276;2022-09-02T06:41:07;100841.32;;;18.74;40.43
74079;BME280;62437;51.544;-3.276;2022-09-02T06:43:32;100843.11;;;19.05;42.33
74079;BME280;62437;51.544;-3.276;2022-09-02T06:45:57;100837.91;;;18.93;40.89
74079;BME280;62437;51.544;-3.276;2022-09-02T06:48:23;100838.47;;;18.95;39.68
74079;BME280;62437;51.544;-3.276;2022-09-02T06:50:49;100842.46;;;18.42;42.21
74079;BME280;62437;51.544;-3.276;2022-09-02T06:53:14;100838.89;;;19.03;40.18
74079;BME280;62437;51.544;-3.276;2022-09-02T06:55:42;100836.79;;;19.25;41.10
74079;BME280;62437;51.544;-3.276;2022-09-02T06:58:05;100833.24;;;19.43;40.49
74079;BME280;62437;51.544;-3.276;2022-09-02T07:00:31;100827.60;;;19.02;41.42
74079;BME280;62437;51.544;-3.276;2022-09-02T07:02:57;100829.07;;;19.31;41.11
74079;BME280;62437;51.544;-3.276;2022-09-02T07:05:22;100827.63;;;19.43;40.76
74079;BME280;62437;51.544;-3.276;2022-09-02T07:07:47;100829.84;;;18.98;40.86
74079;BME280;62437;51.544;-3.276;2022-09-02T07:10:14;100826.60;;;19.19;41.02
74079;BME280;62437;51.544;-3.276;2022-09-02T07:12:40;100822.26;;;19.17;41.96
74079;BME280;62437;51.544;-3.276;2022-09-02T07:15:06;100824.58;;;19.53;42.05
74079;BME280;62437;51.544;-3.276;2022-09-02T07:17:30;100823.66;;;19.30;41.21
74079;BME280;62437;51.544;-3.276;2022-09-02T07:19:55;100823.50;;;19.61;40.05
74079;BME280;62437;51.544;-3.276;2022-09-02T07:22:20;100824.63;;;19.39;39.78
74079;BME280;62437;51.544;-3.276;2022-09-02T07:24:46;100825.21;;;19.65;41.02
74079;BME280;62437;51.544;-3.276;2022-09-02T07:27:11;100825.22;;;19.62;39.93
74079;BME280;62437;51.544;-3.276;2022-09-02T07:29:37;100824.73;;;19.67;39.84
74079;BME280;62437;51.544;-3.276;2022-09-02T07:32:03;100821.25;;;19.32;40.89
74079;BME280;62437;51.544;-3.276;2022-09-02T07:34:28;100815.98;;;19.72;40.69
74079;BME280;62437;51.544;-3.276;2022-09-02T07:36:54;100814.27;;;19.49;40.49
74079;BME280;62437;51.544;-3.276;2022-09-02T07:39:19;100816.61;;;19.53;40.87
74079;BME280;62437;51.544;-3.276;2022-09-02T07:41:47;100812.46;;;19.94;41.58
74079;BME280;62437;51.544;-3.276;2022-09-02T07:44:10;100812.55;;;18.60;43.82
74079;BME280;62437;51.544;-3.276;2022-09-02T07:46:36;100809.96;;;17.99;44.72
74079;BME280;62437;51.544;-3.276;2022-09-02T07:49:05;100807.87;;;19.03;44.24
74079;BME280;62437;51.544;-3.276;2022-09-02T07:51:27;100807.91;;;19.61;43.13
74079;BME280;62437;51.544;-3.276;2022-09-02T07:53:53;100810.68;;;19.09;44.37
74079;BME280;62437;51.544;-3.276;2022-09-02T07:56:33;100805.07;;;19.23;44.61
74079;BME280;62437;51.544;-3.276;2022-09-02T07:59:00;100806.93;;;19.11;43.24
74079;BME280;62437;51.544;-3.276;2022-09-02T08:01:10;100806.03;;;18.79;43.80
74079;BME280;62437;51.544;-3.276;2022-09-02T08:03:36;100805.20;;;19.30;44.39
74079;BME280;62437;51.544;-3.276;2022-09-02T08:06:01;100804.02;;;19.37;43.23
74079;BME280;62437;51.544;-3.276;2022-09-02T08:08:26;100809.03;;;18.67;43.87
74079;BME280;62437;51.544;-3.276;2022-09-02T08:10:52;100805.59;;;19.39;43.32
74079;BME280;62437;51.544;-3.276;2022-09-02T08:13:18;100805.25;;;19.59;43.83
74079;BME280;62437;51.544;-3.276;2022-09-02T08:15:44;100809.77;;;19.84;43.76
74079;BME280;62437;51.544;-3.276;2022-09-02T08:18:09;100811.13;;;19.90;44.08
74079;BME280;62437;51.544;-3.276;2022-09-02T08:20:34;100800.74;;;18.98;43.80
74079;BME280;62437;51.544;-3.276;2022-09-02T08:23:04;100800.00;;;19.55;43.30
74079;BME280;62437;51.544;-3.276;2022-09-02T08:25:26;100798.90;;;19.70;43.74
74079;BME280;62437;51.544;-3.276;2022-09-02T08:27:52;100798.87;;;19.44;43.13
74079;BME280;62437;51.544;-3.276;2022-09-02T08:30:17;100797.76;;;19.76;43.02
74079;BME280;62437;51.544;-3.276;2022-09-02T08:32:43;100799.53;;;20.04;42.73
74079;BME280;62437;51.544;-3.276;2022-09-02T08:35:09;100795.98;;;20.27;43.17
74079;BME280;62437;51.544;-3.276;2022-09-02T08:37:35;100799.93;;;20.10;43.26
74079;BME280;62437;51.544;-3.276;2022-09-02T08:40:00;100801.76;;;20.24;42.91
74079;BME280;62437;51.544;-3.276;2022-09-02T08:42:31;100797.30;;;20.56;42.21
74079;BME280;62437;51.544;-3.276;2022-09-02T08:44:53;100801.44;;;20.09;42.79
74079;BME280;62437;51.544;-3.276;2022-09-02T08:47:20;100803.90;;;20.45;43.54
74079;BME280;62437;51.544;-3.276;2022-09-02T08:49:43;100799.13;;;20.83;42.51
74079;BME280;62437;51.544;-3.276;2022-09-02T08:52:07;100795.64;;;20.91;42.52
74079;BME280;62437;51.544;-3.276;2022-09-02T08:54:38;100796.10;;;20.34;43.28
74079;BME280;62437;51.544;-3.276;2022-09-02T08:56:57;100798.47;;;20.81;42.55
74079;BME280;62437;51.544;-3.276;2022-09-02T08:59:25;100797.70;;;20.16;43.12
74079;BME280;62437;51.544;-3.276;2022-09-02T09:01:53;100791.13;;;20.69;43.09
74079;BME280;62437;51.544;-3.276;2022-09-02T09:04:19;100785.82;;;20.79;42.60
74079;BME280;62437;51.544;-3.276;2022-09-02T09:06:51;100785.56;;;19.77;44.90
74079;BME280;62437;51.544;-3.276;2022-09-02T09:09:12;100779.67;;;20.93;42.41
74079;BME280;62437;51.544;-3.276;2022-09-02T09:11:36;100781.16;;;21.32;42.08
74079;BME280;62437;51.544;-3.276;2022-09-02T09:14:05;100782.81;;;21.05;42.21
74079;BME280;62437;51.544;-3.276;2022-09-02T09:16:33;100787.98;;;20.36;43.34
74079;BME280;62437;51.544;-3.276;2022-09-02T09:18:53;100782.47;;;21.09;42.74
74079;BME280;62437;51.544;-3.276;2022-09-02T09:21:13;100776.54;;;21.23;42.84
74079;BME280;62437;51.544;-3.276;2022-09-02T09:23:39;100776.67;;;21.36;42.58
74079;BME280;62437;51.544;-3.276;2022-09-02T09:26:07;100778.31;;;21.64;42.33
74079;BME280;62437;51.544;-3.276;2022-09-02T09:28:30;100769.87;;;21.09;42.83
74079;BME280;62437;51.544;-3.276;2022-09-02T09:30:56;100767.09;;;20.95;42.93
74079;BME280;62437;51.544;-3.276;2022-09-02T09:33:22;100765.12;;;21.73;42.18
74079;BME280;62437;51.544;-3.276;2022-09-02T09:35:49;100761.65;;;21.04;42.85
74079;BME280;62437;51.544;-3.276;2022-09-02T09:38:13;100757.47;;;21.13;43.09
74079;BME280;62437;51.544;-3.276;2022-09-02T09:40:38;100754.57;;;21.16;43.37
74079;BME280;62437;51.544;-3.276;2022-09-02T09:43:13;100755.72;;;21.66;42.31
74079;BME280;62437;51.544;-3.276;2022-09-02T09:45:32;100754.86;;;21.81;42.23
74079;BME280;62437;51.544;-3.276;2022-09-02T09:48:14;100752.75;;;22.40;41.68
74079;BME280;62437;51.544;-3.276;2022-09-02T09:50:21;100752.77;;;21.61;42.43
74079;BME280;62437;51.544;-3.276;2022-09-02T09:52:46;100753.43;;;21.98;41.70
74079;BME280;62437;51.544;-3.276;2022-09-02T09:55:15;100747.07;;;22.17;41.78
74079;BME280;62437;51.544;-3.276;2022-09-02T09:57:38;100757.48;;;21.61;43.01
74079;BME280;62437;51.544;-3.276;2022-09-02T10:00:11;100749.64;;;21.55;42.89
74079;BME280;62437;51.544;-3.276;2022-09-02T10:02:29;100749.79;;;21.77;42.10
74079;BME280;62437;51.544;-3.276;2022-09-02T10:07:34;100745.67;;;21.90;42.11
74079;BME280;62437;51.544;-3.276;2022-09-02T10:09:45;100743.75;;;21.72;42.41
74079;BME280;62437;51.544;-3.276;2022-09-02T10:12:12;100742.84;;;22.08;42.06
74079;BME280;62437;51.544;-3.276;2022-09-02T10:14:38;100745.35;;;22.15;41.46
74079;BME280;62437;51.544;-3.276;2022-09-02T10:17:16;100744.12;;;21.59;42.97
74079;BME280;62437;51.544;-3.276;2022-09-02T10:19:32;100746.04;;;21.83;42.40
74079;BME280;62437;51.544;-3.276;2022-09-02T10:22:17;100744.31;;;22.20;41.39
74079;BME280;62437;51.544;-3.276;2022-09-02T10:24:33;100746.00;;;22.02;42.37
74079;BME280;62437;51.544;-3.276;2022-09-02T10:26:47;100744.38;;;22.39;42.05
74079;BME280;62437;51.544;-3.276;2022-09-02T10:31:43;100739.46;;;22.52;41.25
74079;BME280;62437;51.544;-3.276;2022-09-02T10:34:09;100733.99;;;22.84;41.09
74079;BME280;62437;51.544;-3.276;2022-09-02T10:36:33;100727.43;;;22.65;40.96
74079;BME280;62437;51.544;-3.276;2022-09-02T10:38:54;100723.61;;;22.69;40.95
74079;BME280;62437;51.544;-3.276;2022-09-02T10:41:29;100721.88;;;22.92;40.40
74079;BME280;62437;51.544;-3.276;2022-09-02T10:44:01;100718.00;;;23.13;40.56
74079;BME280;62437;51.544;-3.276;2022-09-02T10:46:16;100717.45;;;23.00;40.62
74079;BME280;62437;51.544;-3.276;2022-09-02T10:48:44;100710.49;;;22.94;40.57
74079;BME280;62437;51.544;-3.276;2022-09-02T10:51:05;100709.24;;;23.09;41.01
74079;BME280;62437;51.544;-3.276;2022-09-02T10:53:35;100704.73;;;22.73;41.94
74079;BME280;62437;51.544;-3.276;2022-09-02T10:55:55;100697.15;;;22.98;41.10
74079;BME280;62437;51.544;-3.276;2022-09-02T10:58:20;100697.37;;;22.19;43.00
74079;BME280;62437;51.544;-3.276;2022-09-02T11:00:44;100690.60;;;23.05;41.14
74079;BME280;62437;51.544;-3.276;2022-09-02T11:03:12;100691.52;;;23.15;41.80
74079;BME280;62437;51.544;-3.276;2022-09-02T11:05:40;100690.13;;;23.21;41.31
74079;BME280;62437;51.544;-3.276;2022-09-02T11:08:02;100686.69;;;22.81;41.94
74079;BME280;62437;51.544;-3.276;2022-09-02T11:10:26;100684.36;;;22.78;42.55
74079;BME280;62437;51.544;-3.276;2022-09-02T11:12:55;100677.74;;;22.75;43.28
74079;BME280;62437;51.544;-3.276;2022-09-02T11:15:18;100673.80;;;23.22;41.23
74079;BME280;62437;51.544;-3.276;2022-09-02T11:17:44;100671.84;;;22.93;41.15
74079;BME280;62437;51.544;-3.276;2022-09-02T11:20:13;100668.20;;;23.35;40.65
74079;BME280;62437;51.544;-3.276;2022-09-02T11:22:36;100665.51;;;23.24;40.30
74079;BME280;62437;51.544;-3.276;2022-09-02T11:25:02;100667.90;;;23.69;39.81
74079;BME280;62437;51.544;-3.276;2022-09-02T11:27:29;100662.29;;;22.90;41.53
74079;BME280;62437;51.544;-3.276;2022-09-02T11:29:54;100658.78;;;23.05;41.50
74079;BME280;62437;51.544;-3.276;2022-09-02T11:32:18;100659.37;;;23.77;40.77
74079;BME280;62437;51.544;-3.276;2022-09-02T11:34:43;100657.48;;;23.60;40.12
74079;BME280;62437;51.544;-3.276;2022-09-02T11:37:07;100647.53;;;24.17;39.35
74079;BME280;62437;51.544;-3.276;2022-09-02T11:39:33;100640.29;;;24.14;38.63
74079;BME280;62437;51.544;-3.276;2022-09-02T11:42:07;100641.14;;;23.80;40.18
74079;BME280;62437;51.544;-3.276;2022-09-02T11:46:56;100640.51;;;23.71;38.99
74079;BME280;62437;51.544;-3.276;2022-09-02T11:49:27;100633.92;;;22.66;42.38
74079;BME280;62437;51.544;-3.276;2022-09-02T11:51:52;100632.31;;;23.06;42.20
74079;BME280;62437;51.544;-3.276;2022-09-02T11:54:05;100629.33;;;22.86;42.31
74079;BME280;62437;51.544;-3.276;2022-09-02T11:56:35;100631.31;;;23.86;40.03
74079;BME280;62437;51.544;-3.276;2022-09-02T11:58:55;100626.34;;;24.09;39.04
74079;BME280;62437;51.544;-3.276;2022-09-02T12:01:25;100623.68;;;24.10;38.74
74079;BME280;62437;51.544;-3.276;2022-09-02T12:03:51;100624.98;;;23.86;40.16
74079;BME280;62437;51.544;-3.276;2022-09-02T12:06:14;100629.09;;;23.92;40.09
74079;BME280;62437;51.544;-3.276;2022-09-02T12:11:04;100621.41;;;23.48;40.27
74079;BME280;62437;51.544;-3.276;2022-09-02T12:13:35;100614.82;;;23.45;39.94
74079;BME280;62437;51.544;-3.276;2022-09-02T12:18:27;100611.13;;;23.79;39.15
74079;BME280;62437;51.544;-3.276;2022-09-02T12:25:41;100613.57;;;23.24;41.30
74079;BME280;62437;51.544;-3.276;2022-09-02T12:28:12;100616.56;;;23.58;40.10
74079;BME280;62437;51.544;-3.276;2022-09-02T12:33:01;100616.57;;;23.31;40.85
74079;BME280;62437;51.544;-3.276;2022-09-02T12:37:52;100608.12;;;23.53;39.08
74079;BME280;62437;51.544;-3.276;2022-09-02T12:40:15;100607.17;;;23.39;40.02
74079;BME280;62437;51.544;-3.276;2022-09-02T12:42:39;100605.10;;;23.34;40.73
74079;BME280;62437;51.544;-3.276;2022-09-02T12:45:07;100609.57;;;23.17;40.96
74079;BME280;62437;51.544;-3.276;2022-09-02T12:47:33;100602.70;;;23.62;39.09
74079;BME280;62437;51.544;-3.276;2022-09-02T12:49:58;100604.20;;;23.12;40.26
74079;BME280;62437;51.544;-3.276;2022-09-02T12:54:46;100588.06;;;23.48;39.06